createdAt,value
2022-12-11T00:02:14.827Z,83.96
2022-12-11T00:07:16.945Z,83.88
2022-12-11T00:12:18.489Z,83.85
2022-12-11T00:17:19.587Z,84.18
2022-12-11T00:22:20.530Z,84.09
2022-12-11T00:27:21.680Z,83.80
2022-12-11T00:32:22.943Z,83.90
2022-12-11T00:37:23.921Z,84.24
2022-12-11T00:42:25.331Z,84.22
2022-12-11T00:47:26.424Z,84.30
2022-12-11T00:52:27.549Z,84.36
2022-12-11T00:57:28.557Z,84.57
2022-12-11T01:02:29.690Z,84.82
2022-12-11T01:07:30.772Z,84.42
2022-12-11T01:12:31.737Z,84.12
2022-12-11T01:17:32.742Z,84.29
2022-12-11T01:22:33.688Z,84.71
2022-12-11T01:27:36.019Z,84.76
2022-12-11T01:32:37.600Z,84.97
2022-12-11T01:37:38.558Z,85.08
2022-12-11T01:42:39.687Z,85.07
2022-12-11T01:47:40.589Z,85.31
2022-12-11T01:52:45.372Z,85.64
2022-12-11T01:57:49.258Z,85.61
2022-12-11T02:02:50.309Z,85.82
2022-12-11T02:07:58.141Z,86.14
2022-12-11T02:13:27.577Z,86.51
2022-12-11T02:18:50.480Z,86.63
2022-12-11T02:24:11.031Z,86.76
2022-12-11T02:29:20.107Z,86.95
2022-12-11T02:34:43.504Z,86.85
2022-12-11T02:39:47.624Z,87.29
2022-12-11T02:44:52.167Z,87.05
2022-12-11T02:49:55.344Z,87.22
2022-12-11T02:54:58.703Z,87.58
2022-12-11T02:59:59.783Z,87.54
2022-12-11T03:05:00.961Z,87.69
2022-12-11T03:10:06.304Z,87.70
2022-12-11T03:15:13.334Z,87.83
2022-12-11T03:20:33.339Z,87.82
2022-12-11T03:25:52.432Z,87.95
2022-12-11T03:30:55.743Z,87.92
2022-12-11T03:36:02.723Z,87.78
2022-12-11T03:41:06.239Z,87.76
2022-12-11T03:46:09.208Z,87.52
2022-12-11T03:51:10.316Z,87.88
2022-12-11T03:56:15.064Z,87.96
2022-12-11T04:01:16.300Z,87.99
2022-12-11T04:06:17.711Z,88.38
2022-12-11T04:11:37.790Z,88.58
2022-12-11T04:16:38.845Z,88.66
2022-12-11T04:21:58.929Z,88.43
2022-12-11T04:27:00.534Z,88.67
2022-12-11T04:32:01.600Z,88.92
2022-12-11T04:37:02.987Z,89.25
2022-12-11T04:42:04.272Z,89.51
2022-12-11T04:47:05.228Z,89.64
2022-12-11T04:52:06.265Z,89.45
2022-12-11T04:57:07.251Z,89.61
2022-12-11T05:02:08.373Z,89.58
2022-12-11T05:07:09.819Z,89.48
2022-12-11T05:12:10.847Z,89.62
2022-12-11T05:17:12.761Z,90.02
2022-12-11T05:22:14.639Z,90.22
2022-12-11T05:27:15.717Z,90.38
2022-12-11T05:32:17.073Z,90.53
2022-12-11T05:37:18.086Z,90.89
2022-12-11T05:42:22.789Z,90.66
2022-12-11T05:47:26.495Z,90.34
2022-12-11T05:52:27.697Z,89.64
2022-12-11T05:57:28.868Z,89.76
2022-12-11T06:02:29.896Z,90.01
2022-12-11T06:07:31.201Z,89.94
2022-12-11T06:12:32.191Z,89.87
2022-12-11T06:17:33.434Z,89.64
2022-12-11T06:22:34.688Z,89.93
2022-12-11T06:27:35.575Z,90.36
2022-12-11T06:32:36.545Z,90.39
2022-12-11T06:37:39.642Z,90.43
2022-12-11T06:42:41.082Z,90.61
2022-12-11T06:47:42.910Z,90.91
2022-12-11T06:52:43.904Z,91.05
2022-12-11T06:57:44.847Z,91.00
2022-12-11T07:02:46.048Z,90.90
2022-12-11T07:07:47.311Z,90.51
2022-12-11T07:12:48.695Z,90.41
2022-12-11T07:17:49.667Z,90.56
2022-12-11T07:22:50.645Z,90.61
2022-12-11T07:27:51.607Z,90.27
2022-12-11T07:32:52.621Z,90.52
2022-12-11T07:37:53.684Z,90.39
2022-12-11T07:42:54.689Z,90.22
2022-12-11T07:47:55.700Z,90.31
2022-12-11T07:52:56.697Z,90.38
2022-12-11T07:57:58.092Z,90.24
2022-12-11T08:02:59.148Z,90.08
2022-12-11T08:08:00.339Z,90.22
2022-12-11T08:13:01.631Z,90.19
2022-12-11T08:18:03.242Z,89.87
2022-12-11T08:23:04.782Z,89.64
2022-12-11T08:28:05.877Z,89.41
2022-12-11T08:33:06.969Z,89.44
2022-12-11T08:38:07.998Z,89.29
2022-12-11T08:43:08.948Z,89.59
2022-12-11T08:48:10.030Z,89.70
2022-12-11T08:53:11.261Z,89.80
2022-12-11T08:58:12.261Z,89.86
2022-12-11T09:03:13.645Z,89.94
2022-12-11T09:08:14.815Z,89.49
2022-12-11T09:13:15.945Z,89.44
2022-12-11T09:18:17.375Z,89.49
2022-12-11T09:23:18.382Z,89.15
2022-12-11T09:28:19.850Z,88.96
2022-12-11T09:33:20.905Z,88.68
2022-12-11T09:38:21.999Z,88.75
2022-12-11T09:43:47.994Z,88.58
2022-12-11T09:48:52.699Z,88.57
2022-12-11T09:53:59.120Z,88.75
2022-12-11T09:59:00.848Z,88.57
2022-12-11T10:04:23.942Z,88.62
2022-12-11T10:09:39.157Z,88.58
2022-12-11T10:15:10.643Z,88.84
2022-12-11T10:20:24.088Z,88.38
2022-12-11T10:25:28.227Z,88.42
2022-12-11T10:30:37.020Z,88.56
2022-12-11T10:35:47.149Z,88.21
2022-12-11T10:40:57.172Z,88.38
2022-12-11T10:45:58.362Z,88.75
2022-12-11T10:51:03.646Z,89.03
2022-12-11T10:56:05.510Z,88.62
2022-12-11T11:01:10.171Z,88.22
2022-12-11T11:06:19.352Z,88.25
2022-12-11T11:11:27.703Z,87.78
2022-12-11T11:16:29.409Z,87.90
2022-12-11T11:21:32.144Z,88.18
2022-12-11T11:27:04.317Z,88.28
2022-12-11T11:31:54.836Z,88.29
2022-12-11T11:37:00.183Z,87.93
2022-12-11T11:42:07.876Z,87.47
2022-12-11T11:47:33.393Z,87.49
2022-12-11T11:52:56.498Z,87.67
2022-12-11T11:58:06.651Z,87.89
2022-12-11T12:03:13.135Z,87.72
2022-12-11T12:08:51.806Z,87.87
2022-12-11T12:20:20.699Z,87.50
2022-12-11T12:25:40.400Z,87.75
2022-12-11T12:31:24.570Z,88.24
2022-12-11T12:36:44.538Z,88.21
2022-12-11T12:42:23.148Z,88.13
2022-12-11T12:47:27.538Z,88.17
2022-12-11T12:52:33.547Z,87.87
2022-12-11T12:57:36.338Z,88.15
2022-12-11T13:02:47.759Z,88.48
2022-12-11T13:07:54.578Z,89.01
2022-12-11T13:12:56.431Z,88.58
2022-12-11T13:17:59.060Z,88.69
2022-12-11T13:23:07.392Z,88.62
2022-12-11T13:28:21.289Z,88.43
2022-12-11T13:33:23.532Z,88.54
2022-12-11T13:38:24.870Z,88.34
2022-12-11T13:43:29.173Z,88.22
2022-12-11T13:48:56.403Z,87.81
2022-12-11T13:54:17.927Z,87.94
2022-12-11T13:59:23.412Z,87.82
2022-12-11T14:04:27.273Z,87.58
2022-12-11T14:09:28.781Z,87.73
2022-12-11T14:14:40.711Z,87.67
2022-12-11T14:19:46.935Z,87.76
2022-12-11T14:24:53.724Z,87.95
2022-12-11T14:29:55.714Z,87.78
2022-12-11T14:34:57.992Z,87.76
2022-12-11T14:40:09.290Z,87.91
2022-12-11T14:45:22.215Z,87.60
2022-12-11T14:50:34.314Z,87.44
2022-12-11T14:55:37.579Z,87.65
2022-12-11T15:00:38.584Z,87.84
2022-12-11T15:05:59.214Z,87.95
2022-12-11T15:11:07.771Z,87.90
2022-12-11T15:16:13.554Z,88.09
2022-12-11T15:21:15.936Z,87.70
2022-12-11T15:26:18.213Z,88.09
2022-12-11T15:31:24.487Z,88.14
2022-12-11T15:36:30.029Z,88.18
2022-12-11T15:41:33.864Z,88.11
2022-12-11T15:46:35.851Z,87.98
2022-12-11T15:51:42.640Z,88.02
2022-12-11T15:56:44.221Z,88.27
2022-12-11T16:01:45.333Z,88.27
2022-12-11T16:06:46.537Z,88.07
2022-12-11T16:11:47.570Z,87.69
2022-12-11T16:16:48.679Z,88.39
2022-12-11T16:21:51.430Z,89.25
2022-12-11T16:26:52.533Z,89.00
2022-12-11T16:31:53.615Z,88.63
2022-12-11T16:36:57.845Z,88.67
2022-12-11T16:41:58.840Z,88.46
2022-12-11T16:46:59.939Z,88.56
2022-12-11T16:52:00.965Z,88.82
2022-12-11T16:57:02.014Z,88.83
2022-12-11T17:02:03.225Z,88.78
2022-12-11T17:07:04.386Z,88.93
2022-12-11T17:12:05.848Z,88.51
2022-12-11T17:17:08.469Z,88.70
2022-12-11T17:22:09.492Z,89.19
2022-12-11T17:27:13.507Z,89.49
2022-12-11T17:32:15.973Z,89.13
2022-12-11T17:37:17.843Z,89.39
2022-12-11T17:42:19.180Z,89.56
2022-12-11T17:47:20.528Z,89.41
2022-12-11T17:52:21.654Z,89.46
2022-12-11T17:57:23.731Z,89.29
2022-12-11T18:02:25.171Z,88.99
2022-12-11T18:07:26.202Z,88.89
2022-12-11T18:12:27.276Z,88.08
2022-12-11T18:17:28.374Z,88.30
2022-12-11T18:22:29.386Z,88.62
2022-12-11T18:27:30.685Z,88.64
2022-12-11T18:32:31.621Z,88.09
2022-12-11T18:37:33.811Z,88.66
2022-12-11T18:42:35.208Z,88.72
2022-12-11T18:47:36.812Z,88.35
2022-12-11T18:52:37.859Z,88.41
2022-12-11T18:57:38.928Z,88.24
2022-12-11T19:02:39.987Z,88.53
2022-12-11T19:07:41.286Z,88.73
2022-12-11T19:12:42.495Z,89.21
2022-12-11T19:17:44.162Z,88.76
2022-12-11T19:22:45.183Z,88.94
2022-12-11T19:27:46.493Z,89.20
2022-12-11T19:32:47.685Z,89.62
2022-12-11T19:37:48.765Z,89.51
2022-12-11T19:42:49.803Z,90.11
2022-12-11T19:47:51.264Z,90.13
2022-12-11T19:52:52.334Z,89.94
2022-12-11T19:57:54.251Z,90.05
2022-12-11T20:02:55.265Z,90.32
2022-12-11T20:08:09.659Z,90.29
2022-12-11T20:13:20.895Z,90.79
2022-12-11T20:18:21.870Z,90.41
2022-12-11T20:23:22.865Z,90.25
2022-12-11T20:28:24.594Z,90.55
2022-12-11T20:33:25.698Z,91.01
2022-12-11T20:38:32.795Z,91.34
2022-12-11T20:43:36.260Z,91.54
2022-12-11T20:48:38.983Z,91.66
2022-12-11T20:53:41.627Z,91.85
2022-12-11T20:58:43.914Z,91.52
2022-12-11T21:03:46.024Z,91.68
2022-12-11T21:08:47.125Z,91.85
2022-12-11T21:13:48.765Z,92.03
2022-12-11T21:18:50.514Z,92.07
2022-12-11T21:23:51.793Z,92.27
2022-12-11T21:28:53.082Z,92.94
2022-12-11T21:33:54.156Z,93.13
2022-12-11T21:38:57.159Z,93.04
2022-12-11T21:49:19.961Z,93.63
2022-12-11T21:54:21.015Z,93.87
2022-12-11T21:59:22.055Z,93.91
2022-12-11T22:04:24.496Z,93.82
2022-12-11T22:09:25.509Z,94.15
2022-12-11T22:14:26.554Z,94.57
2022-12-11T22:19:32.449Z,94.47
2022-12-11T22:24:34.384Z,94.65
2022-12-11T22:29:36.594Z,94.63
2022-12-11T22:34:40.693Z,94.69
2022-12-11T22:39:41.687Z,94.74
2022-12-11T22:44:42.654Z,94.85
2022-12-11T22:49:43.658Z,95.42
2022-12-11T22:54:45.263Z,95.51
2022-12-11T22:59:46.606Z,95.49
2022-12-11T23:04:47.684Z,95.66
2022-12-11T23:09:48.703Z,95.70
2022-12-11T23:14:50.315Z,95.85
2022-12-11T23:19:51.309Z,96.20
2022-12-11T23:24:52.593Z,96.15
2022-12-11T23:29:55.906Z,96.39
2022-12-11T23:34:56.948Z,96.57
2022-12-11T23:39:57.865Z,96.73
2022-12-11T23:44:58.884Z,96.64
2022-12-11T23:50:00.084Z,96.82
2022-12-11T23:55:01.036Z,96.92
